sensor_id;sensor_type;location;lat;lon;timestamp;P1;durP1;ratioP1;P2;durP2;ratioP2
15398;SDS011;7797;51.428;6.756;2022-07-22T00:00:05;9.83;;;5.20;;
15398;SDS011;7797;51.428;6.756;2022-07-22T00:02:33;11.47;;;5.73;;
15398;SDS011;7797;51.428;6.756;2022-07-22T00:05:00;9.27;;;5.80;;
15398;SDS011;7797;51.428;6.756;2022-07-22T00:07:27;9.73;;;5.50;;
15398;SDS011;7797;51.428;6.756;2022-07-22T00:09:54;11.87;;;6.10;;
15398;SDS011;7797;51.428;6.756;2022-07-22T00:12:20;8.10;;;5.47;;
15398;SDS011;7797;51.428;6.756;2022-07-22T00:14:47;10.27;;;5.73;;
15398;SDS011;7797;51.428;6.756;2022-07-22T00:17:14;8.00;;;5.67;;
15398;SDS011;7797;51.428;6.756;2022-07-22T00:19:41;15.17;;;5.20;;
15398;SDS011;7797;51.428;6.756;2022-07-22T00:22:07;9.33;;;5.67;;
15398;SDS011;7797;51.428;6.756;2022-07-22T00:24:34;8.70;;;5.73;;
15398;SDS011;7797;51.428;6.756;2022-07-22T00:27:01;6.27;;;4.63;;
15398;SDS011;7797;51.428;6.756;2022-07-22T00:29:28;7.00;;;5.07;;
15398;SDS011;7797;51.428;6.756;2022-07-22T00:31:54;9.07;;;5.37;;
15398;SDS011;7797;51.428;6.756;2022-07-22T00:34:21;8.60;;;4.97;;
15398;SDS011;7797;51.428;6.756;2022-07-22T00:36:48;10.33;;;5.80;;
15398;SDS011;7797;51.428;6.756;2022-07-22T00:39:15;10.23;;;5.80;;
15398;SDS011;7797;51.428;6.756;2022-07-22T00:41:41;9.30;;;5.23;;
15398;SDS011;7797;51.428;6.756;2022-07-22T00:44:08;7.27;;;5.30;;
15398;SDS011;7797;51.428;6.756;2022-07-22T00:46:36;11.23;;;5.30;;
15398;SDS011;7797;51.428;6.756;2022-07-22T00:49:04;13.60;;;5.77;;
15398;SDS011;7797;51.428;6.756;2022-07-22T00:51:32;10.93;;;5.53;;
15398;SDS011;7797;51.428;6.756;2022-07-22T00:53:59;8.77;;;5.50;;
15398;SDS011;7797;51.428;6.756;2022-07-22T00:56:26;8.27;;;5.77;;
15398;SDS011;7797;51.428;6.756;2022-07-22T00:58:55;7.47;;;5.37;;
15398;SDS011;7797;51.428;6.756;2022-07-22T01:01:24;8.47;;;5.20;;
15398;SDS011;7797;51.428;6.756;2022-07-22T01:03:51;7.47;;;5.30;;
15398;SDS011;7797;51.428;6.756;2022-07-22T01:06:26;8.07;;;5.20;;
15398;SDS011;7797;51.428;6.756;2022-07-22T01:08:54;9.17;;;4.80;;
15398;SDS011;7797;51.428;6.756;2022-07-22T01:11:22;7.47;;;5.43;;
15398;SDS011;7797;51.428;6.756;2022-07-22T01:13:50;7.93;;;4.97;;
15398;SDS011;7797;51.428;6.756;2022-07-22T01:16:17;10.27;;;5.50;;
15398;SDS011;7797;51.428;6.756;2022-07-22T01:18:45;7.23;;;4.87;;
15398;SDS011;7797;51.428;6.756;2022-07-22T01:21:13;8.53;;;5.20;;
15398;SDS011;7797;51.428;6.756;2022-07-22T01:23:41;8.30;;;5.10;;
15398;SDS011;7797;51.428;6.756;2022-07-22T01:26:07;7.10;;;4.77;;
15398;SDS011;7797;51.428;6.756;2022-07-22T01:28:34;5.67;;;4.70;;
15398;SDS011;7797;51.428;6.756;2022-07-22T01:31:01;4.90;;;4.40;;
15398;SDS011;7797;51.428;6.756;2022-07-22T01:33:28;5.00;;;4.50;;
15398;SDS011;7797;51.428;6.756;2022-07-22T01:35:55;4.43;;;4.03;;
15398;SDS011;7797;51.428;6.756;2022-07-22T01:38:21;4.50;;;4.10;;
15398;SDS011;7797;51.428;6.756;2022-07-22T01:40:48;4.70;;;4.23;;
15398;SDS011;7797;51.428;6.756;2022-07-22T01:43:16;5.07;;;4.57;;
15398;SDS011;7797;51.428;6.756;2022-07-22T01:45:44;5.20;;;4.70;;
15398;SDS011;7797;51.428;6.756;2022-07-22T01:48:11;4.53;;;4.13;;
15398;SDS011;7797;51.428;6.756;2022-07-22T01:50:39;4.47;;;4.10;;
15398;SDS011;7797;51.428;6.756;2022-07-22T01:53:07;5.03;;;4.57;;
15398;SDS011;7797;51.428;6.756;2022-07-22T01:55:34;4.60;;;4.20;;
15398;SDS011;7797;51.428;6.756;2022-07-22T01:58:01;6.07;;;5.20;;
15398;SDS011;7797;51.428;6.756;2022-07-22T02:00:30;5.33;;;4.93;;
15398;SDS011;7797;51.428;6.756;2022-07-22T02:02:57;4.97;;;4.50;;
15398;SDS011;7797;51.428;6.756;2022-07-22T02:05:24;5.53;;;5.07;;
15398;SDS011;7797;51.428;6.756;2022-07-22T02:07:51;5.40;;;4.97;;
15398;SDS011;7797;51.428;6.756;2022-07-22T02:10:18;6.00;;;5.50;;
15398;SDS011;7797;51.428;6.756;2022-07-22T02:12:45;6.10;;;5.50;;
15398;SDS011;7797;51.428;6.756;2022-07-22T02:15:11;5.83;;;5.10;;
15398;SDS011;7797;51.428;6.756;2022-07-22T02:17:38;5.03;;;4.63;;
15398;SDS011;7797;51.428;6.756;2022-07-22T02:20:05;5.43;;;4.70;;
15398;SDS011;7797;51.428;6.756;2022-07-22T02:22:32;5.53;;;5.00;;
15398;SDS011;7797;51.428;6.756;2022-07-22T02:24:59;5.50;;;5.00;;
15398;SDS011;7797;51.428;6.756;2022-07-22T02:27:26;4.87;;;4.33;;
15398;SDS011;7797;51.428;6.756;2022-07-22T02:29:53;5.23;;;4.60;;
15398;SDS011;7797;51.428;6.756;2022-07-22T02:32:20;4.77;;;4.27;;
15398;SDS011;7797;51.428;6.756;2022-07-22T02:34:48;4.37;;;3.97;;
15398;SDS011;7797;51.428;6.756;2022-07-22T02:37:15;5.80;;;4.27;;
15398;SDS011;7797;51.428;6.756;2022-07-22T02:39:42;7.43;;;4.40;;
15398;SDS011;7797;51.428;6.756;2022-07-22T02:42:09;4.90;;;4.40;;
15398;SDS011;7797;51.428;6.756;2022-07-22T02:44:36;6.43;;;4.30;;
15398;SDS011;7797;51.428;6.756;2022-07-22T02:47:03;6.40;;;4.57;;
15398;SDS011;7797;51.428;6.756;2022-07-22T02:49:29;8.87;;;4.97;;
15398;SDS011;7797;51.428;6.756;2022-07-22T02:51:56;13.03;;;4.50;;
15398;SDS011;7797;51.428;6.756;2022-07-22T02:54:23;7.17;;;4.30;;
15398;SDS011;7797;51.428;6.756;2022-07-22T02:56:50;5.03;;;4.40;;
15398;SDS011;7797;51.428;6.756;2022-07-22T02:59:16;7.17;;;4.47;;
15398;SDS011;7797;51.428;6.756;2022-07-22T03:01:43;9.80;;;5.60;;
15398;SDS011;7797;51.428;6.756;2022-07-22T03:04:10;7.20;;;4.27;;
15398;SDS011;7797;51.428;6.756;2022-07-22T03:06:37;6.87;;;4.27;;
15398;SDS011;7797;51.428;6.756;2022-07-22T03:09:04;7.03;;;4.13;;
15398;SDS011;7797;51.428;6.756;2022-07-22T03:11:31;4.97;;;4.10;;
15398;SDS011;7797;51.428;6.756;2022-07-22T03:13:58;6.53;;;4.57;;
15398;SDS011;7797;51.428;6.756;2022-07-22T03:16:24;5.37;;;4.40;;
15398;SDS011;7797;51.428;6.756;2022-07-22T03:18:51;6.43;;;4.50;;
15398;SDS011;7797;51.428;6.756;2022-07-22T03:21:19;5.50;;;4.83;;
15398;SDS011;7797;51.428;6.756;2022-07-22T03:23:45;4.77;;;3.93;;
15398;SDS011;7797;51.428;6.756;2022-07-22T03:26:12;4.50;;;4.10;;
15398;SDS011;7797;51.428;6.756;2022-07-22T03:28:39;5.63;;;4.00;;
15398;SDS011;7797;51.428;6.756;2022-07-22T03:31:06;8.67;;;4.50;;
15398;SDS011;7797;51.428;6.756;2022-07-22T03:33:32;6.27;;;4.20;;
15398;SDS011;7797;51.428;6.756;2022-07-22T03:35:59;5.20;;;4.00;;
15398;SDS011;7797;51.428;6.756;2022-07-22T03:38:26;7.40;;;4.80;;
15398;SDS011;7797;51.428;6.756;2022-07-22T03:40:52;9.03;;;4.50;;
15398;SDS011;7797;51.428;6.756;2022-07-22T03:43:20;8.73;;;4.67;;
15398;SDS011;7797;51.428;6.756;2022-07-22T03:45:47;5.57;;;4.20;;
15398;SDS011;7797;51.428;6.756;2022-07-22T03:48:14;6.57;;;4.00;;
15398;SDS011;7797;51.428;6.756;2022-07-22T03:50:40;7.00;;;4.40;;
15398;SDS011;7797;51.428;6.756;2022-07-22T03:53:07;4.83;;;3.97;;
15398;SDS011;7797;51.428;6.756;2022-07-22T03:55:34;9.13;;;4.10;;
15398;SDS011;7797;51.428;6.756;2022-07-22T03:58:01;9.53;;;4.13;;
15398;SDS011;7797;51.428;6.756;2022-07-22T04:00:28;9.40;;;4.67;;
15398;SDS011;7797;51.428;6.756;2022-07-22T04:02:55;6.93;;;4.43;;
15398;SDS011;7797;51.428;6.756;2022-07-22T04:05:21;8.23;;;4.70;;
15398;SDS011;7797;51.428;6.756;2022-07-22T04:07:48;7.00;;;5.20;;
15398;SDS011;7797;51.428;6.756;2022-07-22T04:10:15;7.70;;;5.57;;
15398;SDS011;7797;51.428;6.756;2022-07-22T04:12:42;7.27;;;4.80;;
15398;SDS011;7797;51.428;6.756;2022-07-22T04:15:08;5.10;;;4.60;;
15398;SDS011;7797;51.428;6.756;2022-07-22T04:17:35;5.20;;;4.40;;
15398;SDS011;7797;51.428;6.756;2022-07-22T04:20:02;7.10;;;4.80;;
15398;SDS011;7797;51.428;6.756;2022-07-22T04:22:30;6.70;;;4.43;;
15398;SDS011;7797;51.428;6.756;2022-07-22T04:24:56;6.73;;;4.57;;
15398;SDS011;7797;51.428;6.756;2022-07-22T04:27:23;7.10;;;4.83;;
15398;SDS011;7797;51.428;6.756;2022-07-22T04:29:50;7.67;;;4.10;;
15398;SDS011;7797;51.428;6.756;2022-07-22T04:32:17;6.83;;;4.33;;
15398;SDS011;7797;51.428;6.756;2022-07-22T04:34:43;6.43;;;4.00;;
15398;SDS011;7797;51.428;6.756;2022-07-22T04:37:10;4.30;;;3.90;;
15398;SDS011;7797;51.428;6.756;2022-07-22T04:39:37;8.90;;;4.33;;
15398;SDS011;7797;51.428;6.756;2022-07-22T04:42:04;7.17;;;3.47;;
15398;SDS011;7797;51.428;6.756;2022-07-22T04:44:30;4.77;;;3.00;;
15398;SDS011;7797;51.428;6.756;2022-07-22T04:46:57;7.37;;;2.70;;
15398;SDS011;7797;51.428;6.756;2022-07-22T04:49:26;6.43;;;2.70;;
15398;SDS011;7797;51.428;6.756;2022-07-22T04:51:53;6.17;;;2.80;;
15398;SDS011;7797;51.428;6.756;2022-07-22T04:54:20;6.40;;;2.50;;
15398;SDS011;7797;51.428;6.756;2022-07-22T04:56:48;3.73;;;2.90;;
15398;SDS011;7797;51.428;6.756;2022-07-22T04:59:14;4.53;;;2.60;;
15398;SDS011;7797;51.428;6.756;2022-07-22T05:01:41;6.97;;;2.90;;
15398;SDS011;7797;51.428;6.756;2022-07-22T05:04:08;4.47;;;2.37;;
15398;SDS011;7797;51.428;6.756;2022-07-22T05:06:35;7.07;;;3.23;;
15398;SDS011;7797;51.428;6.756;2022-07-22T05:09:01;7.23;;;2.80;;
15398;SDS011;7797;51.428;6.756;2022-07-22T05:11:28;6.23;;;2.70;;
15398;SDS011;7797;51.428;6.756;2022-07-22T05:13:55;5.53;;;2.47;;
15398;SDS011;7797;51.428;6.756;2022-07-22T05:16:22;7.60;;;2.47;;
15398;SDS011;7797;51.428;6.756;2022-07-22T05:18:48;8.13;;;2.63;;
15398;SDS011;7797;51.428;6.756;2022-07-22T05:21:15;8.03;;;2.70;;
15398;SDS011;7797;51.428;6.756;2022-07-22T05:23:42;5.87;;;2.70;;
15398;SDS011;7797;51.428;6.756;2022-07-22T05:26:09;5.07;;;2.50;;
15398;SDS011;7797;51.428;6.756;2022-07-22T05:28:36;4.47;;;2.50;;
15398;SDS011;7797;51.428;6.756;2022-07-22T05:31:02;5.37;;;2.50;;
15398;SDS011;7797;51.428;6.756;2022-07-22T05:33:32;8.23;;;2.90;;
15398;SDS011;7797;51.428;6.756;2022-07-22T05:35:59;5.97;;;2.30;;
15398;SDS011;7797;51.428;6.756;2022-07-22T05:38:25;5.47;;;2.13;;
15398;SDS011;7797;51.428;6.756;2022-07-22T05:40:52;5.57;;;2.83;;
15398;SDS011;7797;51.428;6.756;2022-07-22T05:43:19;6.57;;;2.70;;
15398;SDS011;7797;51.428;6.756;2022-07-22T05:45:46;3.13;;;2.10;;
15398;SDS011;7797;51.428;6.756;2022-07-22T05:48:13;7.47;;;2.40;;
15398;SDS011;7797;51.428;6.756;2022-07-22T05:50:39;8.40;;;2.60;;
15398;SDS011;7797;51.428;6.756;2022-07-22T05:53:06;10.10;;;2.70;;
15398;SDS011;7797;51.428;6.756;2022-07-22T05:55:33;4.80;;;2.50;;
15398;SDS011;7797;51.428;6.756;2022-07-22T05:58:00;4.33;;;2.13;;
15398;SDS011;7797;51.428;6.756;2022-07-22T06:00:26;7.27;;;2.10;;
15398;SDS011;7797;51.428;6.756;2022-07-22T06:02:53;7.13;;;2.80;;
15398;SDS011;7797;51.428;6.756;2022-07-22T06:05:20;4.03;;;2.20;;
15398;SDS011;7797;51.428;6.756;2022-07-22T06:08:04;7.00;;;2.47;;
15398;SDS011;7797;51.428;6.756;2022-07-22T06:10:30;6.20;;;2.40;;
15398;SDS011;7797;51.428;6.756;2022-07-22T06:12:57;9.20;;;2.50;;
15398;SDS011;7797;51.428;6.756;2022-07-22T06:15:24;5.40;;;2.43;;
15398;SDS011;7797;51.428;6.756;2022-07-22T06:17:52;5.20;;;2.33;;
15398;SDS011;7797;51.428;6.756;2022-07-22T06:20:19;4.80;;;2.77;;
15398;SDS011;7797;51.428;6.756;2022-07-22T06:22:46;4.93;;;2.30;;
15398;SDS011;7797;51.428;6.756;2022-07-22T06:25:13;4.93;;;2.50;;
15398;SDS011;7797;51.428;6.756;2022-07-22T06:28:00;6.13;;;2.23;;
15398;SDS011;7797;51.428;6.756;2022-07-22T06:30:27;4.33;;;2.30;;
15398;SDS011;7797;51.428;6.756;2022-07-22T06:32:54;4.10;;;2.07;;
15398;SDS011;7797;51.428;6.756;2022-07-22T06:35:22;2.50;;;2.00;;
15398;SDS011;7797;51.428;6.756;2022-07-22T06:37:51;6.77;;;2.10;;
15398;SDS011;7797;51.428;6.756;2022-07-22T06:40:31;5.50;;;2.37;;
15398;SDS011;7797;51.428;6.756;2022-07-22T06:42:59;7.70;;;2.40;;
15398;SDS011;7797;51.428;6.756;2022-07-22T06:45:26;3.27;;;2.13;;
15398;SDS011;7797;51.428;6.756;2022-07-22T06:47:53;4.50;;;2.33;;
15398;SDS011;7797;51.428;6.756;2022-07-22T06:50:21;4.53;;;2.07;;
15398;SDS011;7797;51.428;6.756;2022-07-22T06:52:49;8.33;;;2.50;;
15398;SDS011;7797;51.428;6.756;2022-07-22T06:55:16;6.27;;;2.40;;
15398;SDS011;7797;51.428;6.756;2022-07-22T06:57:43;3.50;;;2.20;;
15398;SDS011;7797;51.428;6.756;2022-07-22T07:00:10;6.43;;;2.20;;
15398;SDS011;7797;51.428;6.756;2022-07-22T07:02:37;4.93;;;2.33;;
15398;SDS011;7797;51.428;6.756;2022-07-22T07:05:03;4.27;;;2.20;;
15398;SDS011;7797;51.428;6.756;2022-07-22T07:07:31;5.07;;;2.70;;
15398;SDS011;7797;51.428;6.756;2022-07-22T07:10:02;3.50;;;2.47;;
15398;SDS011;7797;51.428;6.756;2022-07-22T07:12:34;5.60;;;2.57;;
15398;SDS011;7797;51.428;6.756;2022-07-22T07:15:03;5.17;;;2.67;;
15398;SDS011;7797;51.428;6.756;2022-07-22T07:17:50;3.83;;;2.47;;
15398;SDS011;7797;51.428;6.756;2022-07-22T07:20:18;7.23;;;2.40;;
15398;SDS011;7797;51.428;6.756;2022-07-22T07:22:45;5.03;;;2.53;;
15398;SDS011;7797;51.428;6.756;2022-07-22T07:25:12;4.47;;;2.47;;
15398;SDS011;7797;51.428;6.756;2022-07-22T07:27:49;4.43;;;2.20;;
15398;SDS011;7797;51.428;6.756;2022-07-22T07:30:16;4.40;;;2.30;;
15398;SDS011;7797;51.428;6.756;2022-07-22T07:32:43;5.73;;;2.70;;
15398;SDS011;7797;51.428;6.756;2022-07-22T07:35:10;7.80;;;2.37;;
15398;SDS011;7797;51.428;6.756;2022-07-22T07:37:37;7.60;;;2.80;;
15398;SDS011;7797;51.428;6.756;2022-07-22T07:40:04;2.87;;;2.20;;
15398;SDS011;7797;51.428;6.756;2022-07-22T07:42:32;2.63;;;2.10;;
15398;SDS011;7797;51.428;6.756;2022-07-22T07:44:59;4.30;;;2.50;;
15398;SDS011;7797;51.428;6.756;2022-07-22T07:47:25;3.63;;;2.30;;
15398;SDS011;7797;51.428;6.756;2022-07-22T07:49:52;2.43;;;2.20;;
15398;SDS011;7797;51.428;6.756;2022-07-22T07:52:19;5.90;;;2.40;;
15398;SDS011;7797;51.428;6.756;2022-07-22T07:54:45;6.20;;;2.60;;
15398;SDS011;7797;51.428;6.756;2022-07-22T07:57:33;3.87;;;2.47;;
15398;SDS011;7797;51.428;6.756;2022-07-22T08:00:00;4.43;;;2.97;;
15398;SDS011;7797;51.428;6.756;2022-07-22T08:02:27;3.87;;;2.50;;
15398;SDS011;7797;51.428;6.756;2022-07-22T08:04:54;5.63;;;2.50;;
15398;SDS011;7797;51.428;6.756;2022-07-22T08:07:24;8.93;;;3.17;;
15398;SDS011;7797;51.428;6.756;2022-07-22T08:09:52;7.67;;;2.93;;
15398;SDS011;7797;51.428;6.756;2022-07-22T08:12:38;5.27;;;2.70;;
15398;SDS011;7797;51.428;6.756;2022-07-22T08:15:06;6.07;;;2.50;;
15398;SDS011;7797;51.428;6.756;2022-07-22T08:17:33;4.40;;;2.90;;
15398;SDS011;7797;51.428;6.756;2022-07-22T08:20:02;5.57;;;2.50;;
15398;SDS011;7797;51.428;6.756;2022-07-22T08:22:30;6.97;;;2.73;;
15398;SDS011;7797;51.428;6.756;2022-07-22T08:24:56;2.87;;;2.27;;
15398;SDS011;7797;51.428;6.756;2022-07-22T08:27:23;5.87;;;2.67;;
15398;SDS011;7797;51.428;6.756;2022-07-22T08:29:50;6.10;;;2.70;;
15398;SDS011;7797;51.428;6.756;2022-07-22T08:32:17;5.10;;;2.30;;
15398;SDS011;7797;51.428;6.756;2022-07-22T08:34:44;6.87;;;2.27;;
15398;SDS011;7797;51.428;6.756;2022-07-22T08:37:10;3.77;;;2.30;;
15398;SDS011;7797;51.428;6.756;2022-07-22T08:39:37;5.17;;;2.70;;
15398;SDS011;7797;51.428;6.756;2022-07-22T08:42:04;4.73;;;2.83;;
15398;SDS011;7797;51.428;6.756;2022-07-22T08:44:31;2.80;;;2.40;;
15398;SDS011;7797;51.428;6.756;2022-07-22T08:46:59;3.60;;;2.77;;
15398;SDS011;7797;51.428;6.756;2022-07-22T08:49:46;6.70;;;2.73;;
15398;SDS011;7797;51.428;6.756;2022-07-22T08:52:13;3.27;;;2.47;;
15398;SDS011;7797;51.428;6.756;2022-07-22T08:54:40;6.17;;;2.97;;
15398;SDS011;7797;51.428;6.756;2022-07-22T08:57:06;3.57;;;2.57;;
15398;SDS011;7797;51.428;6.756;2022-07-22T08:59:33;4.03;;;3.27;;
15398;SDS011;7797;51.428;6.756;2022-07-22T09:02:15;3.03;;;2.70;;
15398;SDS011;7797;51.428;6.756;2022-07-22T09:07:48;5.60;;;3.43;;
15398;SDS011;7797;51.428;6.756;2022-07-22T09:10:16;5.03;;;3.53;;
15398;SDS011;7797;51.428;6.756;2022-07-22T09:12:51;4.93;;;3.67;;
15398;SDS011;7797;51.428;6.756;2022-07-22T09:17:58;6.33;;;4.60;;
15398;SDS011;7797;51.428;6.756;2022-07-22T09:20:30;6.83;;;5.00;;
15398;SDS011;7797;51.428;6.756;2022-07-22T09:22:57;6.83;;;4.43;;
15398;SDS011;7797;51.428;6.756;2022-07-22T09:27:56;7.50;;;4.77;;
15398;SDS011;7797;51.428;6.756;2022-07-22T09:30:49;8.30;;;5.10;;
15398;SDS011;7797;51.428;6.756;2022-07-22T09:33:20;9.60;;;6.17;;
15398;SDS011;7797;51.428;6.756;2022-07-22T09:35:48;9.13;;;6.20;;
15398;SDS011;7797;51.428;6.756;2022-07-22T09:38:18;8.57;;;6.03;;
15398;SDS011;7797;51.428;6.756;2022-07-22T09:40:47;9.47;;;5.40;;
15398;SDS011;7797;51.428;6.756;2022-07-22T09:43:16;7.10;;;5.07;;
15398;SDS011;7797;51.428;6.756;2022-07-22T09:45:50;7.27;;;4.80;;
15398;SDS011;7797;51.428;6.756;2022-07-22T09:48:21;8.07;;;4.50;;
15398;SDS011;7797;51.428;6.756;2022-07-22T09:50:48;7.00;;;4.60;;
15398;SDS011;7797;51.428;6.756;2022-07-22T09:53:17;7.27;;;4.50;;
15398;SDS011;7797;51.428;6.756;2022-07-22T09:55:45;6.77;;;5.60;;
15398;SDS011;7797;51.428;6.756;2022-07-22T09:58:13;8.67;;;5.30;;
15398;SDS011;7797;51.428;6.756;2022-07-22T10:00:40;6.07;;;5.00;;
15398;SDS011;7797;51.428;6.756;2022-07-22T10:03:10;6.03;;;5.00;;
15398;SDS011;7797;51.428;6.756;2022-07-22T10:05:40;7.33;;;5.13;;
15398;SDS011;7797;51.428;6.756;2022-07-22T10:08:08;7.87;;;5.60;;
15398;SDS011;7797;51.428;6.756;2022-07-22T10:10:36;7.80;;;5.63;;
15398;SDS011;7797;51.428;6.756;2022-07-22T10:13:04;7.43;;;5.10;;
15398;SDS011;7797;51.428;6.756;2022-07-22T10:15:32;8.20;;;5.33;;
15398;SDS011;7797;51.428;6.756;2022-07-22T10:18:02;10.67;;;6.47;;
15398;SDS011;7797;51.428;6.756;2022-07-22T10:20:40;7.77;;;6.03;;
15398;SDS011;7797;51.428;6.756;2022-07-22T10:23:07;7.20;;;6.07;;
15398;SDS011;7797;51.428;6.756;2022-07-22T10:25:56;9.23;;;6.33;;
15398;SDS011;7797;51.428;6.756;2022-07-22T10:28:29;11.73;;;5.87;;
15398;SDS011;7797;51.428;6.756;2022-07-22T10:33:43;9.30;;;6.27;;
15398;SDS011;7797;51.428;6.756;2022-07-22T10:36:10;8.50;;;7.03;;
15398;SDS011;7797;51.428;6.756;2022-07-22T10:38:38;7.37;;;6.23;;
15398;SDS011;7797;51.428;6.756;2022-07-22T10:41:36;8.90;;;6.63;;
15398;SDS011;7797;51.428;6.756;2022-07-22T10:50:44;11.03;;;6.33;;
15398;SDS011;7797;51.428;6.756;2022-07-22T10:53:14;6.53;;;5.90;;
15398;SDS011;7797;51.428;6.756;2022-07-22T10:55:58;7.07;;;6.20;;
15398;SDS011;7797;51.428;6.756;2022-07-22T11:01:01;6.93;;;5.83;;
15398;SDS011;7797;51.428;6.756;2022-07-22T11:03:30;9.50;;;5.37;;
15398;SDS011;7797;51.428;6.756;2022-07-22T11:06:12;9.27;;;5.60;;
15398;SDS011;7797;51.428;6.756;2022-07-22T11:08:43;10.13;;;5.77;;
15398;SDS011;7797;51.428;6.756;2022-07-22T11:11:11;6.50;;;5.50;;
15398;SDS011;7797;51.428;6.756;2022-07-22T11:13:39;6.97;;;5.50;;
15398;SDS011;7797;51.428;6.756;2022-07-22T11:16:23;7.97;;;5.60;;
15398;SDS011;7797;51.428;6.756;2022-07-22T11:18:52;7.43;;;6.07;;
15398;SDS011;7797;51.428;6.756;2022-07-22T11:21:25;7.07;;;5.43;;
15398;SDS011;7797;51.428;6.756;2022-07-22T11:23:57;9.03;;;6.47;;
15398;SDS011;7797;51.428;6.756;2022-07-22T11:29:03;7.60;;;6.47;;
15398;SDS011;7797;51.428;6.756;2022-07-22T11:31:30;7.23;;;5.77;;
15398;SDS011;7797;51.428;6.756;2022-07-22T11:34:30;8.57;;;6.00;;
15398;SDS011;7797;51.428;6.756;2022-07-22T11:36:50;9.07;;;6.53;;
15398;SDS011;7797;51.428;6.756;2022-07-22T11:39:18;6.67;;;5.90;;
15398;SDS011;7797;51.428;6.756;2022-07-22T11:41:46;8.27;;;6.07;;
15398;SDS011;7797;51.428;6.756;2022-07-22T11:44:16;5.47;;;4.97;;
15398;SDS011;7797;51.428;6.756;2022-07-22T11:46:47;5.40;;;4.90;;
15398;SDS011;7797;51.428;6.756;2022-07-22T11:49:15;8.17;;;5.37;;
15398;SDS011;7797;51.428;6.756;2022-07-22T11:51:43;6.30;;;5.27;;
15398;SDS011;7797;51.428;6.756;2022-07-22T11:54:10;6.80;;;5.53;;
15398;SDS011;7797;51.428;6.756;2022-07-22T11:56:38;5.90;;;4.83;;
15398;SDS011;7797;51.428;6.756;2022-07-22T11:59:05;6.07;;;4.80;;
15398;SDS011;7797;51.428;6.756;2022-07-22T12:01:33;7.60;;;5.10;;
15398;SDS011;7797;51.428;6.756;2022-07-22T12:04:02;9.70;;;5.70;;
15398;SDS011;7797;51.428;6.756;2022-07-22T12:06:31;6.03;;;5.37;;
15398;SDS011;7797;51.428;6.756;2022-07-22T12:09:03;7.97;;;5.43;;
15398;SDS011;7797;51.428;6.756;2022-07-22T12:11:30;5.90;;;5.30;;
15398;SDS011;7797;51.428;6.756;2022-07-22T12:13:57;6.20;;;5.60;;
15398;SDS011;7797;51.428;6.756;2022-07-22T12:16:35;5.60;;;5.10;;
15398;SDS011;7797;51.428;6.756;2022-07-22T12:19:09;6.13;;;5.27;;
15398;SDS011;7797;51.428;6.756;2022-07-22T12:21:49;7.20;;;4.83;;
15398;SDS011;7797;51.428;6.756;2022-07-22T12:26:59;5.70;;;5.20;;
15398;SDS011;7797;51.428;6.756;2022-07-22T12:29:29;5.20;;;4.80;;
15398;SDS011;7797;51.428;6.756;2022-07-22T12:31:59;7.37;;;5.03;;
15398;SDS011;7797;51.428;6.756;2022-07-22T12:34:32;5.57;;;5.07;;
15398;SDS011;7797;51.428;6.756;2022-07-22T12:37:00;9.17;;;5.20;;
15398;SDS011;7797;51.428;6.756;2022-07-22T12:39:53;5.53;;;4.93;;
15398;SDS011;7797;51.428;6.756;2022-07-22T12:42:23;5.93;;;5.33;;
15398;SDS011;7797;51.428;6.756;2022-07-22T12:45:13;7.07;;;5.13;;
15398;SDS011;7797;51.428;6.756;2022-07-22T12:47:46;9.83;;;5.30;;
15398;SDS011;7797;51.428;6.756;2022-07-22T12:50:53;5.43;;;4.93;;
15398;SDS011;7797;51.428;6.756;2022-07-22T12:53:25;7.57;;;5.50;;
15398;SDS011;7797;51.428;6.756;2022-07-22T12:55:56;7.87;;;6.03;;
15398;SDS011;7797;51.428;6.756;2022-07-22T12:58:29;6.40;;;5.73;;
15398;SDS011;7797;51.428;6.756;2022-07-22T13:00:58;8.03;;;5.60;;
15398;SDS011;7797;51.428;6.756;2022-07-22T13:03:26;6.63;;;5.93;;
15398;SDS011;7797;51.428;6.756;2022-07-22T13:05:54;6.23;;;5.50;;
15398;SDS011;7797;51.428;6.756;2022-07-22T13:08:22;8.90;;;6.10;;
15398;SDS011;7797;51.428;6.756;2022-07-22T13:10:50;7.10;;;6.40;;
15398;SDS011;7797;51.428;6.756;2022-07-22T13:13:18;10.30;;;6.88;;
15398;SDS011;7797;51.428;6.756;2022-07-22T13:15:45;8.73;;;6.97;;
15398;SDS011;7797;51.428;6.756;2022-07-22T13:18:12;7.88;;;6.47;;
15398;SDS011;7797;51.428;6.756;2022-07-22T13:20:39;7.90;;;7.13;;
15398;SDS011;7797;51.428;6.756;2022-07-22T13:23:06;8.38;;;7.57;;
15398;SDS011;7797;51.428;6.756;2022-07-22T13:25:33;10.85;;;7.78;;
15398;SDS011;7797;51.428;6.756;2022-07-22T13:28:03;9.63;;;8.35;;
15398;SDS011;7797;51.428;6.756;2022-07-22T13:30:33;9.57;;;8.40;;
15398;SDS011;7797;51.428;6.756;2022-07-22T13:33:00;11.02;;;8.88;;
15398;SDS011;7797;51.428;6.756;2022-07-22T13:35:26;14.23;;;9.13;;
15398;SDS011;7797;51.428;6.756;2022-07-22T13:37:56;11.43;;;8.80;;
15398;SDS011;7797;51.428;6.756;2022-07-22T13:40:25;9.60;;;7.80;;
15398;SDS011;7797;51.428;6.756;2022-07-22T13:42:52;10.38;;;8.63;;
15398;SDS011;7797;51.428;6.756;2022-07-22T13:45:19;10.35;;;8.25;;
15398;SDS011;7797;51.428;6.756;2022-07-22T13:47:46;9.15;;;8.25;;
15398;SDS011;7797;51.428;6.756;2022-07-22T13:50:15;8.15;;;7.45;;
15398;SDS011;7797;51.428;6.756;2022-07-22T13:52:42;10.27;;;9.15;;
15398;SDS011;7797;51.428;6.756;2022-07-22T13:55:12;11.45;;;9.90;;
15398;SDS011;7797;51.428;6.756;2022-07-22T13:57:40;11.20;;;9.98;;
15398;SDS011;7797;51.428;6.756;2022-07-22T14:00:07;12.38;;;10.18;;
15398;SDS011;7797;51.428;6.756;2022-07-22T14:02:40;10.93;;;9.93;;
15398;SDS011;7797;51.428;6.756;2022-07-22T14:05:07;11.07;;;9.93;;
15398;SDS011;7797;51.428;6.756;2022-07-22T14:07:34;10.35;;;9.10;;
15398;SDS011;7797;51.428;6.756;2022-07-22T14:10:01;11.90;;;9.75;;
15398;SDS011;7797;51.428;6.756;2022-07-22T14:12:28;10.73;;;9.73;;
15398;SDS011;7797;51.428;6.756;2022-07-22T14:14:55;10.52;;;9.52;;
15398;SDS011;7797;51.428;6.756;2022-07-22T14:17:21;10.38;;;9.27;;
15398;SDS011;7797;51.428;6.756;2022-07-22T14:19:51;10.50;;;9.52;;
15398;SDS011;7797;51.428;6.756;2022-07-22T14:22:25;10.68;;;9.45;;
15398;SDS011;7797;51.428;6.756;2022-07-22T14:24:52;9.93;;;9.00;;
15398;SDS011;7797;51.428;6.756;2022-07-22T14:27:19;10.10;;;9.00;;
15398;SDS011;7797;51.428;6.756;2022-07-22T14:29:46;10.10;;;9.00;;
15398;SDS011;7797;51.428;6.756;2022-07-22T14:32:12;10.07;;;9.00;;
15398;SDS011;7797;51.428;6.756;2022-07-22T14:34:39;9.48;;;8.02;;
15398;SDS011;7797;51.428;6.756;2022-07-22T14:37:06;10.05;;;7.45;;
15398;SDS011;7797;51.428;6.756;2022-07-22T14:39:35;10.48;;;7.10;;
15398;SDS011;7797;51.428;6.756;2022-07-22T14:42:01;7.70;;;6.90;;
15398;SDS011;7797;51.428;6.756;2022-07-22T14:48:06;7.15;;;5.55;;
15398;SDS011;7797;51.428;6.756;2022-07-22T14:50:32;7.55;;;5.63;;
15398;SDS011;7797;51.428;6.756;2022-07-22T14:52:59;6.05;;;5.30;;
15398;SDS011;7797;51.428;6.756;2022-07-22T14:55:26;8.40;;;5.60;;
15398;SDS011;7797;51.428;6.756;2022-07-22T14:57:53;6.40;;;5.50;;
15398;SDS011;7797;51.428;6.756;2022-07-22T15:00:22;6.63;;;4.95;;
15398;SDS011;7797;51.428;6.756;2022-07-22T15:02:55;8.88;;;5.13;;
15398;SDS011;7797;51.428;6.756;2022-07-22T15:05:22;4.85;;;4.38;;
15398;SDS011;7797;51.428;6.756;2022-07-22T15:07:50;6.30;;;4.40;;
15398;SDS011;7797;51.428;6.756;2022-07-22T15:10:17;6.30;;;4.93;;
15398;SDS011;7797;51.428;6.756;2022-07-22T15:12:44;7.95;;;4.50;;
15398;SDS011;7797;51.428;6.756;2022-07-22T15:15:14;7.95;;;4.90;;
15398;SDS011;7797;51.428;6.756;2022-07-22T15:17:41;8.52;;;4.40;;
15398;SDS011;7797;51.428;6.756;2022-07-22T15:20:09;6.15;;;4.30;;
15398;SDS011;7797;51.428;6.756;2022-07-22T15:22:36;9.00;;;4.50;;
15398;SDS011;7797;51.428;6.756;2022-07-22T15:25:03;4.60;;;4.20;;
15398;SDS011;7797;51.428;6.756;2022-07-22T15:27:30;6.55;;;4.30;;
15398;SDS011;7797;51.428;6.756;2022-07-22T15:29:57;6.28;;;3.95;;
15398;SDS011;7797;51.428;6.756;2022-07-22T15:32:24;6.00;;;4.35;;
15398;SDS011;7797;51.428;6.756;2022-07-22T15:34:51;6.68;;;4.45;;
15398;SDS011;7797;51.428;6.756;2022-07-22T15:37:17;5.85;;;3.95;;